Time;durP1;ratioP1;P1;durP2;ratioP2;P2;SDS_P1;SDS_P2;PMS_P1;PMS_P2;Temp;Humidity;BMP_temperature;BMP_pressure;BME280_temperature;BME280_humidity;BME280_pressure;Samples;Min_cycle;Max_cycle;Signal;HPM_P1;HPM_P2
2023/10/24 00:00:39;;;;;;;;;;;19.90;58.20;;;;;;1505983;76;834;-60
2023/10/24 00:02:41;;;;;;;;;;;19.90;58.20;;;;;;1502030;78;1098;-59
2023/10/24 00:04:43;;;;;;;;;;;19.90;58.20;;;;;;1520073;78;714;-59
2023/10/24 00:06:45;;;;;;;;;;;19.90;58.20;;;;;;1512755;76;774;-60
2023/10/24 00:08:47;;;;;;;;;;;19.90;58.20;;;;;;1511840;78;732;-59
2023/10/24 00:10:49;;;;;;;;;;;19.90;58.20;;;;;;1505968;77;1135;-59
2023/10/24 00:12:51;;;;;;;;;;;19.90;58.20;;;;;;1512310;77;1570;-59
2023/10/24 00:14:54;;;;;;;;;;;19.90;58.20;;;;;;1510286;76;1909;-60
2023/10/24 00:16:56;;;;;;;;;;;19.90;58.20;;;;;;1507814;78;767;-60
2023/10/24 00:18:58;;;;;;;;;;;19.90;58.20;;;;;;1513118;78;791;-59
2023/10/24 00:21:00;;;;;;;;;;;19.90;58.20;;;;;;1515068;78;1185;-60
2023/10/24 00:23:02;;;;;;;;;;;19.90;58.20;;;;;;1514297;76;812;-59
2023/10/24 00:25:04;;;;;;;;;;;19.90;58.20;;;;;;1504821;78;610;-60
2023/10/24 00:27:06;;;;;;;;;;;19.90;58.20;;;;;;1515541;77;1610;-60
2023/10/24 00:29:07;;;;;;;;;;;19.90;58.20;;;;;;1508335;78;797;-60
2023/10/24 00:31:09;;;;;;;;;;;19.90;58.20;;;;;;1504933;77;1113;-59
2023/10/24 00:33:11;;;;;;;;;;;19.90;58.10;;;;;;1514331;76;591;-59
2023/10/24 00:35:13;;;;;;;;;;;19.90;58.20;;;;;;1505798;77;1927;-60
2023/10/24 00:37:15;;;;;;;;;;;19.80;58.10;;;;;;1515383;78;722;-60
2023/10/24 00:39:17;;;;;;;;;;;19.90;58.20;;;;;;1511198;77;691;-60
2023/10/24 00:41:19;;;;;;;;;;;19.90;58.20;;;;;;1505100;76;1579;-58
2023/10/24 00:43:21;;;;;;;;;;;19.90;58.20;;;;;;1513978;76;808;-59
2023/10/24 00:45:22;;;;;;;;;;;19.90;58.20;;;;;;1507715;78;700;-56
2023/10/24 00:47:24;;;;;;;;;;;19.90;58.20;;;;;;1520276;78;790;-58
2023/10/24 00:49:26;;;;;;;;;;;19.90;58.10;;;;;;1507249;78;771;-55
2023/10/24 00:51:28;;;;;;;;;;;19.90;58.10;;;;;;1513343;78;1143;-57
2023/10/24 00:53:30;;;;;;;;;;;19.90;58.20;;;;;;1516092;76;734;-58
2023/10/24 00:55:32;;;;;;;;;;;19.90;58.20;;;;;;1518632;78;1942;-58
2023/10/24 00:57:34;;;;;;;;;;;19.90;58.10;;;;;;1515218;78;741;-58
2023/10/24 00:59:36;;;;;;;;;;;19.90;58.20;;;;;;1511646;76;729;-60
2023/10/24 01:01:38;;;;;;;;;;;19.90;58.20;;;;;;1520311;77;1174;-56
2023/10/24 01:03:40;;;;;;;;;;;19.90;58.20;;;;;;1502970;78;740;-59
2023/10/24 01:05:42;;;;;;;;;;;19.90;58.20;;;;;;1510529;78;736;-57
2023/10/24 01:07:45;;;;;;;;;;;19.90;58.20;;;;;;1506286;76;805;-56
2023/10/24 01:09:47;;;;;;;;;;;19.90;58.20;;;;;;1511537;78;1580;-58
2023/10/24 01:11:49;;;;;;;;;;;19.90;58.20;;;;;;1512923;77;1159;-55
2023/10/24 01:13:51;;;;;;;;;;;19.90;58.20;;;;;;1505836;76;768;-57
2023/10/24 01:15:53;;;;;;;;;;;19.90;58.20;;;;;;1508697;77;1938;-58
2023/10/24 01:17:55;;;;;;;;;;;19.90;58.20;;;;;;1511258;78;674;-56
2023/10/24 01:19:57;;;;;;;;;;;19.90;58.20;;;;;;1507727;77;755;-55
2023/10/24 01:21:59;;;;;;;;;;;19.90;58.20;;;;;;1513577;76;1117;-58
2023/10/24 01:24:00;;;;;;;;;;;19.90;58.20;;;;;;1514965;78;1418;-57
2023/10/24 01:26:02;;;;;;;;;;;19.90;58.20;;;;;;1503280;78;756;-59
2023/10/24 01:28:05;;;;;;;;;;;19.90;58.20;;;;;;1517754;77;785;-58
2023/10/24 01:30:07;;;;;;;;;;;19.90;58.20;;;;;;1511869;78;800;-59
2023/10/24 01:32:09;;;;;;;;;;;19.90;58.20;;;;;;1511577;76;1082;-59
2023/10/24 01:34:12;;;;;;;;;;;19.90;58.20;;;;;;1511385;76;1946;-60
2023/10/24 01:36:13;;;;;;;;;;;19.90;58.10;;;;;;1505919;78;812;-60
2023/10/24 01:38:15;;;;;;;;;;;19.90;58.20;;;;;;1512937;78;1691;-60
2023/10/24 01:40:17;;;;;;;;;;;19.90;58.20;;;;;;1510397;78;696;-60
2023/10/24 01:42:19;;;;;;;;;;;19.90;58.20;;;;;;1514611;76;1176;-60
2023/10/24 01:44:21;;;;;;;;;;;19.90;58.20;;;;;;1511499;76;650;-59
2023/10/24 01:46:23;;;;;;;;;;;19.90;58.20;;;;;;1505588;78;639;-60
2023/10/24 01:48:25;;;;;;;;;;;19.90;58.20;;;;;;1512251;78;713;-59
2023/10/24 01:50:27;;;;;;;;;;;19.90;58.20;;;;;;1514032;78;1268;-60
2023/10/24 01:52:29;;;;;;;;;;;19.90;58.10;;;;;;1519046;76;1135;-60
2023/10/24 01:54:31;;;;;;;;;;;19.90;58.10;;;;;;1503565;78;1929;-60
2023/10/24 01:56:32;;;;;;;;;;;19.90;58.20;;;;;;1503472;78;728;-59
2023/10/24 01:58:34;;;;;;;;;;;19.90;58.20;;;;;;1506820;78;616;-60
2023/10/24 02:00:36;;;;;;;;;;;19.90;58.10;;;;;;1517348;78;675;-60
2023/10/24 02:02:38;;;;;;;;;;;19.90;58.20;;;;;;1512845;76;1071;-60
2023/10/24 02:04:41;;;;;;;;;;;19.90;58.20;;;;;;1513499;78;1559;-58
2023/10/24 02:06:43;;;;;;;;;;;19.90;58.20;;;;;;1517064;76;812;-58
2023/10/24 02:08:44;;;;;;;;;;;19.90;58.20;;;;;;1510249;77;794;-58
2023/10/24 02:10:46;;;;;;;;;;;19.90;58.20;;;;;;1513492;78;1163;-59
2023/10/24 02:12:48;;;;;;;;;;;19.90;58.30;;;;;;1503507;77;722;-59
2023/10/24 02:14:51;;;;;;;;;;;19.90;58.20;;;;;;1512166;76;1924;-59
2023/10/24 02:16:53;;;;;;;;;;;19.90;58.30;;;;;;1510291;78;749;-60
2023/10/24 02:18:55;;;;;;;;;;;19.80;58.20;;;;;;1515407;77;1570;-59
2023/10/24 02:20:57;;;;;;;;;;;19.90;58.30;;;;;;1501717;78;1214;-59
2023/10/24 02:22:59;;;;;;;;;;;19.90;58.40;;;;;;1512510;76;719;-59
2023/10/24 02:25:01;;;;;;;;;;;19.90;58.30;;;;;;1515868;78;657;-60
2023/10/24 02:27:03;;;;;;;;;;;20.00;58.30;;;;;;1513018;78;677;-61
2023/10/24 02:29:05;;;;;;;;;;;19.90;58.30;;;;;;1516970;78;783;-60
2023/10/24 02:31:06;;;;;;;;;;;19.90;58.30;;;;;;1507595;76;1143;-61
2023/10/24 02:33:08;;;;;;;;;;;19.90;58.30;;;;;;1513166;77;1576;-61
2023/10/24 02:35:10;;;;;;;;;;;19.90;58.30;;;;;;1512899;78;1949;-60
2023/10/24 02:37:12;;;;;;;;;;;19.90;58.30;;;;;;1516947;78;771;-60
2023/10/24 02:39:14;;;;;;;;;;;19.90;58.30;;;;;;1512933;76;773;-60
2023/10/24 02:41:16;;;;;;;;;;;19.90;58.30;;;;;;1513512;76;1188;-60
2023/10/24 02:43:18;;;;;;;;;;;19.90;58.40;;;;;;1520058;76;913;-61
2023/10/24 02:45:19;;;;;;;;;;;19.90;58.30;;;;;;1516517;78;671;-59
2023/10/24 02:47:21;;;;;;;;;;;19.90;58.40;;;;;;1504430;77;1510;-60
2023/10/24 02:49:23;;;;;;;;;;;19.90;58.30;;;;;;1514048;78;750;-60
2023/10/24 02:51:25;;;;;;;;;;;19.90;58.30;;;;;;1512296;76;1093;-58
2023/10/24 02:53:27;;;;;;;;;;;19.90;58.40;;;;;;1507494;78;674;-58
2023/10/24 02:55:29;;;;;;;;;;;19.90;58.30;;;;;;1509326;78;1916;-59
2023/10/24 02:57:31;;;;;;;;;;;19.90;58.30;;;;;;1515426;78;674;-60
2023/10/24 02:59:33;;;;;;;;;;;19.90;58.30;;;;;;1510502;77;708;-59
2023/10/24 03:01:35;;;;;;;;;;;19.90;58.30;;;;;;1510167;76;1484;-59
2023/10/24 03:03:37;;;;;;;;;;;19.90;58.40;;;;;;1500344;78;691;-59
2023/10/24 03:05:39;;;;;;;;;;;19.90;58.40;;;;;;1505428;78;660;-59
2023/10/24 03:07:41;;;;;;;;;;;19.90;58.30;;;;;;1511085;76;665;-59
2023/10/24 03:09:43;;;;;;;;;;;19.90;58.30;;;;;;1507307;78;750;-59
2023/10/24 03:11:45;;;;;;;;;;;19.90;58.30;;;;;;1510075;77;1245;-57
2023/10/24 03:13:47;;;;;;;;;;;19.90;58.30;;;;;;1512043;76;724;-56
2023/10/24 03:15:49;;;;;;;;;;;19.90;58.40;;;;;;1518293;77;1938;-59
2023/10/24 03:17:51;;;;;;;;;;;19.90;58.40;;;;;;1505973;78;686;-60
2023/10/24 03:19:53;;;;;;;;;;;19.90;58.40;;;;;;1518894;78;696;-60
2023/10/24 03:21:54;;;;;;;;;;;19.90;58.40;;;;;;1514466;76;1144;-58
2023/10/24 03:23:56;;;;;;;;;;;19.90;58.30;;;;;;1505061;78;778;-60
2023/10/24 03:25:58;;;;;;;;;;;19.90;58.30;;;;;;1508061;78;715;-56
2023/10/24 03:28:00;;;;;;;;;;;20.00;58.40;;;;;;1513274;78;1047;-60
2023/10/24 03:30:02;;;;;;;;;;;19.90;58.40;;;;;;1514167;76;1537;-58
2023/10/24 03:32:04;;;;;;;;;;;19.90;58.30;;;;;;1505669;78;1085;-59
2023/10/24 03:34:06;;;;;;;;;;;19.90;58.40;;;;;;1516157;78;793;-56
2023/10/24 03:36:16;;;;;;;;;;;19.90;58.40;;;;;;1502217;78;1950;-59
2023/10/24 03:38:15;;;;;;;;;;;20.00;58.40;;;;;;1515060;76;1414;-57
2023/10/24 03:40:17;;;;;;;;;;;20.00;58.30;;;;;;1506125;78;735;-57
2023/10/24 03:42:19;;;;;;;;;;;19.90;58.40;;;;;;1505757;78;1152;-57
2023/10/24 03:44:26;;;;;;;;;;;19.90;58.40;;;;;;1511563;76;1408;-58
2023/10/24 03:46:25;;;;;;;;;;;19.90;58.40;;;;;;1509686;78;1233;-57
2023/10/24 03:48:27;;;;;;;;;;;20.00;58.40;;;;;;1515639;77;763;-58
2023/10/24 03:50:29;;;;;;;;;;;19.90;58.40;;;;;;1506060;77;809;-57
2023/10/24 03:52:31;;;;;;;;;;;19.90;58.30;;;;;;1508306;78;1081;-57
2023/10/24 03:54:33;;;;;;;;;;;19.90;58.40;;;;;;1511187;76;849;-60
2023/10/24 03:56:35;;;;;;;;;;;20.00;58.40;;;;;;1513525;78;1918;-60
2023/10/24 03:58:37;;;;;;;;;;;19.90;58.30;;;;;;1510160;78;1569;-60
2023/10/24 04:00:39;;;;;;;;;;;19.90;58.40;;;;;;1515128;78;675;-61
2023/10/24 04:02:41;;;;;;;;;;;19.90;58.40;;;;;;1511197;76;1018;-60
2023/10/24 04:04:43;;;;;;;;;;;19.90;58.40;;;;;;1508784;78;788;-60
2023/10/24 04:06:45;;;;;;;;;;;19.90;58.40;;;;;;1504857;76;750;-61
2023/10/24 04:08:47;;;;;;;;;;;19.90;58.40;;;;;;1511157;77;753;-61
2023/10/24 04:10:49;;;;;;;;;;;19.90;58.40;;;;;;1517590;78;1148;-61
2023/10/24 04:12:51;;;;;;;;;;;19.90;58.40;;;;;;1511529;78;1684;-61
2023/10/24 04:14:53;;;;;;;;;;;19.90;58.40;;;;;;1509611;76;733;-60
2023/10/24 04:16:55;;;;;;;;;;;20.00;58.40;;;;;;1505394;78;1931;-61
2023/10/24 04:18:57;;;;;;;;;;;19.90;58.40;;;;;;1514855;78;715;-61
2023/10/24 04:20:59;;;;;;;;;;;19.90;58.40;;;;;;1506192;78;1124;-61
2023/10/24 04:23:02;;;;;;;;;;;19.90;58.40;;;;;;1511597;76;676;-60
2023/10/24 04:25:04;;;;;;;;;;;19.90;58.40;;;;;;1510541;78;699;-60
2023/10/24 04:27:08;;;;;;;;;;;19.90;58.40;;;;;;1513340;78;1422;-60
2023/10/24 04:29:09;;;;;;;;;;;19.90;58.40;;;;;;1516623;78;763;-60
2023/10/24 04:31:11;;;;;;;;;;;19.90;58.40;;;;;;1504823;76;1030;-59
2023/10/24 04:33:14;;;;;;;;;;;19.90;58.40;;;;;;1508686;76;756;-61
2023/10/24 04:35:16;;;;;;;;;;;19.90;58.40;;;;;;1509684;78;815;-60
2023/10/24 04:37:18;;;;;;;;;;;19.90;58.40;;;;;;1513738;78;673;-59
2023/10/24 04:39:20;;;;;;;;;;;19.90;58.50;;;;;;1511344;78;1504;-61
2023/10/24 04:41:22;;;;;;;;;;;19.90;58.40;;;;;;1508777;76;1191;-59
2023/10/24 04:43:24;;;;;;;;;;;19.90;58.40;;;;;;1511738;76;687;-61
2023/10/24 04:45:29;;;;;;;;;;;19.90;58.40;;;;;;1494392;78;711;-60
2023/10/24 04:47:29;;;;;;;;;;;19.90;58.40;;;;;;1518313;78;1716;-61
2023/10/24 04:49:31;;;;;;;;;;;19.90;58.50;;;;;;1516232;78;749;-61
2023/10/24 04:51:33;;;;;;;;;;;19.90;58.40;;;;;;1518143;78;1102;-60
2023/10/24 04:53:35;;;;;;;;;;;20.00;58.40;;;;;;1511920;76;1576;-61
2023/10/24 04:55:37;;;;;;;;;;;20.00;58.40;;;;;;1513097;77;1937;-60
2023/10/24 04:57:39;;;;;;;;;;;19.90;58.40;;;;;;1508763;77;696;-61
2023/10/24 04:59:41;;;;;;;;;;;19.90;58.40;;;;;;1508662;78;740;-60
2023/10/24 05:01:42;;;;;;;;;;;19.90;58.40;;;;;;1509942;76;1106;-60
2023/10/24 05:03:44;;;;;;;;;;;19.90;58.40;;;;;;1512017;78;725;-59
2023/10/24 05:05:46;;;;;;;;;;;19.90;58.40;;;;;;1507732;78;766;-60
2023/10/24 05:07:48;;;;;;;;;;;19.90;58.40;;;;;;1512067;76;1513;-60
2023/10/24 05:09:50;;;;;;;;;;;19.90;58.40;;;;;;1513415;78;722;-60
2023/10/24 05:11:52;;;;;;;;;;;19.90;58.50;;;;;;1503762;77;1159;-60
2023/10/24 05:13:54;;;;;;;;;;;20.00;58.40;;;;;;1511586;76;604;-58
2023/10/24 05:15:56;;;;;;;;;;;20.00;58.40;;;;;;1518185;78;1949;-59
2023/10/24 05:17:58;;;;;;;;;;;19.90;58.40;;;;;;1519920;78;759;-57
2023/10/24 05:20:03;;;;;;;;;;;19.90;58.40;;;;;;1514471;78;707;-59
2023/10/24 05:22:03;;;;;;;;;;;19.90;58.40;;;;;;1503833;76;1530;-58
2023/10/24 05:24:06;;;;;;;;;;;19.90;58.40;;;;;;1506649;78;732;-59
2023/10/24 05:26:08;;;;;;;;;;;19.90;58.40;;;;;;1501710;78;716;-56
2023/10/24 05:28:10;;;;;;;;;;;19.90;58.40;;;;;;1522308;77;725;-57
2023/10/24 05:30:12;;;;;;;;;;;20.00;58.40;;;;;;1514098;76;791;-60
2023/10/24 05:32:15;;;;;;;;;;;19.90;58.40;;;;;;1510747;78;1155;-56
2023/10/24 05:34:17;;;;;;;;;;;20.00;58.40;;;;;;1516200;78;780;-56
2023/10/24 05:36:19;;;;;;;;;;;19.90;58.40;;;;;;1515807;78;1933;-59
2023/10/24 05:38:20;;;;;;;;;;;19.90;58.40;;;;;;1516075;78;750;-59
2023/10/24 05:40:23;;;;;;;;;;;19.90;58.40;;;;;;1513684;76;763;-57
2023/10/24 05:42:25;;;;;;;;;;;19.90;58.40;;;;;;1510685;76;1148;-56
2023/10/24 05:44:27;;;;;;;;;;;20.00;58.40;;;;;;1515073;76;684;-60
2023/10/24 05:46:29;;;;;;;;;;;19.90;58.40;;;;;;1484187;79;745;-56
2023/10/24 05:48:31;;;;;;;;;;;19.90;58.40;;;;;;1509132;78;874;-58
2023/10/24 05:50:34;;;;;;;;;;;19.90;58.40;;;;;;1508604;77;1307;-59
2023/10/24 05:52:36;;;;;;;;;;;20.00;58.40;;;;;;1511750;76;1143;-58
2023/10/24 05:54:37;;;;;;;;;;;19.90;58.40;;;;;;1510030;78;864;-58
2023/10/24 05:56:39;;;;;;;;;;;20.00;58.40;;;;;;1500548;78;1937;-60
2023/10/24 05:58:41;;;;;;;;;;;19.90;58.40;;;;;;1503071;78;787;-57
2023/10/24 06:00:43;;;;;;;;;;;19.90;58.40;;;;;;1515903;76;704;-58
2023/10/24 06:02:45;;;;;;;;;;;19.90;58.40;;;;;;1513553;78;775;-57
2023/10/24 06:04:47;;;;;;;;;;;20.00;58.40;;;;;;1512628;77;1614;-58
2023/10/24 06:06:49;;;;;;;;;;;20.00;58.40;;;;;;1497842;78;745;-59
2023/10/24 06:08:51;;;;;;;;;;;19.90;58.40;;;;;;1510738;78;667;-56
2023/10/24 06:10:59;;;;;;;;;;;19.90;58.40;;;;;;1505001;78;1109;-59
2023/10/24 06:13:02;;;;;;;;;;;19.90;58.40;;;;;;1509709;77;746;-56
2023/10/24 06:15:05;;;;;;;;;;;19.90;58.40;;;;;;1517022;76;749;-58
2023/10/24 06:17:07;;;;;;;;;;;19.90;58.40;;;;;;1511512;78;1936;-56
2023/10/24 06:19:09;;;;;;;;;;;19.90;58.40;;;;;;1510392;78;1359;-55
2023/10/24 06:21:11;;;;;;;;;;;19.90;58.40;;;;;;1513348;78;1160;-56
2023/10/24 06:23:13;;;;;;;;;;;19.90;58.40;;;;;;1511605;76;717;-58
2023/10/24 06:25:15;;;;;;;;;;;19.90;58.40;;;;;;1508387;78;766;-55
2023/10/24 06:27:17;;;;;;;;;;;19.90;58.40;;;;;;1514243;78;677;-56
2023/10/24 06:29:19;;;;;;;;;;;19.90;58.50;;;;;;1512489;76;731;-55
2023/10/24 06:31:21;;;;;;;;;;;19.90;58.50;;;;;;1516931;76;1147;-58
2023/10/24 06:33:23;;;;;;;;;;;19.90;58.40;;;;;;1511004;78;1561;-55
2023/10/24 06:35:24;;;;;;;;;;;19.90;58.50;;;;;;1514501;78;680;-58
2023/10/24 06:37:26;;;;;;;;;;;19.90;58.50;;;;;;1505656;77;1933;-58
2023/10/24 06:39:28;;;;;;;;;;;19.90;58.40;;;;;;1512536;76;791;-58
2023/10/24 06:41:30;;;;;;;;;;;19.90;58.40;;;;;;1511947;78;1194;-58
2023/10/24 06:43:32;;;;;;;;;;;20.00;58.40;;;;;;1508786;76;648;-58
2023/10/24 06:45:34;;;;;;;;;;;19.90;58.40;;;;;;1513443;78;786;-57
2023/10/24 06:47:36;;;;;;;;;;;19.90;58.30;;;;;;1506283;78;1537;-58
2023/10/24 06:49:38;;;;;;;;;;;19.90;58.30;;;;;;1512519;78;697;-58
2023/10/24 06:51:39;;;;;;;;;;;19.90;58.40;;;;;;1506592;78;1171;-58
2023/10/24 06:53:41;;;;;;;;;;;19.90;58.40;;;;;;1512234;76;781;-57
2023/10/24 06:55:43;;;;;;;;;;;19.90;58.40;;;;;;1517089;78;693;-59
2023/10/24 06:57:45;;;;;;;;;;;19.90;58.30;;;;;;1510247;77;1930;-57
2023/10/24 06:59:47;;;;;;;;;;;19.90;58.40;;;;;;1510039;78;742;-58
2023/10/24 07:01:50;;;;;;;;;;;19.90;58.30;;;;;;1513755;76;1143;-56
2023/10/24 07:03:54;;;;;;;;;;;19.90;58.40;;;;;;1509992;76;753;-54
2023/10/24 07:05:55;;;;;;;;;;;19.90;58.30;;;;;;1515517;77;1032;-57
2023/10/24 07:07:58;;;;;;;;;;;19.90;58.30;;;;;;1515136;76;794;-58
2023/10/24 07:10:00;;;;;;;;;;;19.90;58.30;;;;;;1517415;77;804;-58
2023/10/24 07:12:02;;;;;;;;;;;19.90;58.30;;;;;;1511741;78;1134;-59
2023/10/24 07:14:04;;;;;;;;;;;19.90;58.30;;;;;;1515503;76;1515;-58
2023/10/24 07:16:14;;;;;;;;;;;19.90;58.30;;;;;;1521020;78;712;-56
2023/10/24 07:18:15;;;;;;;;;;;19.90;58.30;;;;;;1511120;78;1666;-59
2023/10/24 07:20:17;;;;;;;;;;;19.90;58.30;;;;;;1506574;78;842;-59
2023/10/24 07:22:19;;;;;;;;;;;19.90;58.30;;;;;;1507309;76;1134;-59
2023/10/24 07:24:21;;;;;;;;;;;19.90;58.30;;;;;;1509537;78;802;-60
2023/10/24 07:26:23;;;;;;;;;;;19.90;58.30;;;;;;1513372;78;755;-58
2023/10/24 07:28:25;;;;;;;;;;;19.90;58.30;;;;;;1511790;77;1523;-57
2023/10/24 07:30:27;;;;;;;;;;;19.90;58.30;;;;;;1513738;78;736;-59
2023/10/24 07:32:29;;;;;;;;;;;19.90;58.30;;;;;;1518036;76;1140;-59
2023/10/24 07:34:33;;;;;;;;;;;19.90;58.30;;;;;;1510889;78;738;-57
2023/10/24 07:36:35;;;;;;;;;;;19.90;58.30;;;;;;1518564;78;1922;-59
2023/10/24 07:38:37;;;;;;;;;;;19.90;58.30;;;;;;1514931;77;812;-59
2023/10/24 07:40:39;;;;;;;;;;;19.90;58.30;;;;;;1515426;76;857;-57
2023/10/24 07:42:41;;;;;;;;;;;19.90;58.30;;;;;;1516557;78;1477;-59
2023/10/24 07:44:43;;;;;;;;;;;19.90;58.30;;;;;;1520140;76;760;-58
2023/10/24 07:46:44;;;;;;;;;;;19.90;58.30;;;;;;1515817;77;750;-59
2023/10/24 07:48:49;;;;;;;;;;;19.90;58.30;;;;;;1514859;77;712;-57
2023/10/24 07:50:51;;;;;;;;;;;19.90;58.20;;;;;;1521048;78;1609;-61
2023/10/24 07:52:53;;;;;;;;;;;19.90;58.30;;;;;;1511562;76;697;-57
2023/10/24 07:54:54;;;;;;;;;;;19.90;56.30;;;;;;1510249;78;553;-59
2023/10/24 07:56:56;;;;;;;;;;;19.90;57.90;;;;;;1511365;78;1960;-57
2023/10/24 07:58:59;;;;;;;;;;;19.90;58.10;;;;;;1516434;78;639;-57
2023/10/24 08:01:03;;;;;;;;;;;19.90;58.20;;;;;;1504971;76;1319;-57
2023/10/24 08:03:05;;;;;;;;;;;19.80;58.20;;;;;;1506898;77;1802;-59
2023/10/24 08:05:07;;;;;;;;;;;19.90;58.30;;;;;;1505774;77;710;-57
2023/10/24 08:07:09;;;;;;;;;;;19.90;58.30;;;;;;1515759;76;997;-57
2023/10/24 08:09:11;;;;;;;;;;;19.90;58.30;;;;;;1510989;77;1096;-59
2023/10/24 08:11:12;;;;;;;;;;;19.90;58.20;;;;;;1513414;78;1342;-57
2023/10/24 08:13:14;;;;;;;;;;;19.90;58.30;;;;;;1515814;76;1342;-57
2023/10/24 08:15:16;;;;;;;;;;;19.90;58.30;;;;;;1508171;76;1339;-57
2023/10/24 08:17:18;;;;;;;;;;;19.90;58.30;;;;;;1519161;77;1933;-59
2023/10/24 08:19:20;;;;;;;;;;;19.90;58.30;;;;;;1506584;77;1543;-60
2023/10/24 08:21:22;;;;;;;;;;;19.90;58.30;;;;;;1512571;77;1378;-59
2023/10/24 08:23:24;;;;;;;;;;;19.90;58.30;;;;;;1511554;76;1360;-59
2023/10/24 08:25:26;;;;;;;;;;;19.90;58.30;;;;;;1515323;76;1425;-59
2023/10/24 08:27:27;;;;;;;;;;;19.90;58.30;;;;;;1516764;78;1335;-57
2023/10/24 08:29:29;;;;;;;;;;;19.90;58.30;;;;;;1509657;76;1346;-56
2023/10/24 08:31:31;;;;;;;;;;;19.90;58.30;;;;;;1509058;77;1493;-57
2023/10/24 08:33:33;;;;;;;;;;;19.90;58.30;;;;;;1512299;76;1558;-57
2023/10/24 08:35:35;;;;;;;;;;;19.90;58.30;;;;;;1518408;76;1520;-60
2023/10/24 08:37:37;;;;;;;;;;;19.90;58.30;;;;;;1513599;77;1954;-59
2023/10/24 08:39:39;;;;;;;;;;;19.90;58.30;;;;;;1507535;77;1459;-59
2023/10/24 08:41:41;;;;;;;;;;;19.90;58.30;;;;;;1513972;78;1333;-58
2023/10/24 08:43:43;;;;;;;;;;;19.90;58.30;;;;;;1512834;76;1795;-58
2023/10/24 08:45:45;;;;;;;;;;;19.90;58.30;;;;;;1515154;77;1576;-59
2023/10/24 08:47:49;;;;;;;;;;;19.90;58.30;;;;;;1509704;78;1515;-58
2023/10/24 08:49:51;;;;;;;;;;;19.90;58.30;;;;;;1509927;78;1536;-57
2023/10/24 08:51:53;;;;;;;;;;;19.90;58.30;;;;;;1519302;76;1538;-60
2023/10/24 08:53:55;;;;;;;;;;;19.90;58.40;;;;;;1495916;78;1687;-60
2023/10/24 08:55:57;;;;;;;;;;;19.90;58.40;;;;;;1515145;78;1523;-60
2023/10/24 08:58:00;;;;;;;;;;;19.90;58.40;;;;;;1513242;78;1913;-63
2023/10/24 09:00:02;;;;;;;;;;;19.90;58.40;;;;;;1511380;78;1476;-60
2023/10/24 09:02:04;;;;;;;;;;;19.90;58.40;;;;;;1515277;78;1519;-58
2023/10/24 09:04:05;;;;;;;;;;;19.90;58.40;;;;;;1513276;76;1253;-60
2023/10/24 09:06:07;;;;;;;;;;;19.90;58.40;;;;;;1509585;77;1376;-59
2023/10/24 09:08:09;;;;;;;;;;;19.90;58.40;;;;;;1513691;76;1498;-60
2023/10/24 09:10:11;;;;;;;;;;;19.90;58.40;;;;;;1507625;78;1258;-59
2023/10/24 09:12:16;;;;;;;;;;;20.00;58.40;;;;;;1512988;77;1295;-60
2023/10/24 09:14:18;;;;;;;;;;;19.90;58.40;;;;;;1520754;76;1406;-59
2023/10/24 09:16:20;;;;;;;;;;;19.90;58.40;;;;;;1509990;78;1544;-59
2023/10/24 09:18:22;;;;;;;;;;;19.90;58.50;;;;;;1519023;78;1926;-59
2023/10/24 09:20:24;;;;;;;;;;;19.90;58.50;;;;;;1515262;77;1527;-58
2023/10/24 09:22:27;;;;;;;;;;;19.90;58.50;;;;;;1520569;76;1577;-60
2023/10/24 09:24:29;;;;;;;;;;;19.90;58.50;;;;;;1518870;78;1357;-58
2023/10/24 09:26:31;;;;;;;;;;;19.90;58.60;;;;;;1518645;78;1277;-58
2023/10/24 09:28:36;;;;;;;;;;;19.90;58.60;;;;;;1513928;78;1491;-58
2023/10/24 09:30:39;;;;;;;;;;;19.90;58.70;;;;;;1513094;76;1512;-58
2023/10/24 09:32:41;;;;;;;;;;;20.00;58.60;;;;;;1508406;77;1513;-58
2023/10/24 09:34:43;;;;;;;;;;;19.80;58.50;;;;;;1512783;78;1485;-60
2023/10/24 09:36:46;;;;;;;;;;;19.90;58.60;;;;;;1514366;76;1551;-59
2023/10/24 09:38:48;;;;;;;;;;;19.90;58.70;;;;;;1511411;77;1946;-59
2023/10/24 09:40:50;;;;;;;;;;;20.00;58.70;;;;;;1516980;78;1552;-59
2023/10/24 09:42:51;;;;;;;;;;;19.90;58.70;;;;;;1516552;77;1527;-60
2023/10/24 09:44:54;;;;;;;;;;;19.90;58.70;;;;;;1517050;76;1292;-60
2023/10/24 09:46:56;;;;;;;;;;;19.90;58.70;;;;;;1518649;77;1246;-60
2023/10/24 09:48:58;;;;;;;;;;;19.90;58.70;;;;;;1518687;77;1597;-59
2023/10/24 09:51:00;;;;;;;;;;;19.90;58.70;;;;;;1512386;78;1372;-59
2023/10/24 09:53:02;;;;;;;;;;;20.00;58.70;;;;;;1512801;76;1507;-60
2023/10/24 09:55:04;;;;;;;;;;;19.90;58.60;;;;;;1516371;77;1498;-60
2023/10/24 09:57:06;;;;;;;;;;;19.90;58.60;;;;;;1516453;77;1514;-59
2023/10/24 09:59:08;;;;;;;;;;;19.90;58.60;;;;;;1512410;78;1944;-60
2023/10/24 10:01:10;;;;;;;;;;;20.00;58.60;;;;;;1515632;76;1524;-60
2023/10/24 10:03:12;;;;;;;;;;;19.90;58.60;;;;;;1516134;78;1503;-60
2023/10/24 10:05:14;;;;;;;;;;;19.90;58.60;;;;;;1514369;77;1267;-60
2023/10/24 10:07:16;;;;;;;;;;;20.10;58.80;;;;;;1509506;76;1482;-60
2023/10/24 10:09:18;;;;;;;;;;;20.00;58.70;;;;;;1516602;77;1462;-60
2023/10/24 10:11:20;;;;;;;;;;;20.00;58.60;;;;;;1514555;77;1564;-59
2023/10/24 10:13:22;;;;;;;;;;;20.00;58.70;;;;;;1515300;76;1359;-59
2023/10/24 10:15:26;;;;;;;;;;;19.90;58.70;;;;;;1512734;77;1481;-61
2023/10/24 10:17:32;;;;;;;;;;;19.90;58.60;;;;;;1516736;78;2336;-60
2023/10/24 10:19:51;;;;;;;;;;;19.90;58.70;;;;;;1513366;78;1952;-60
2023/10/24 10:22:11;;;;;;;;;;;19.90;58.70;;;;;;1511028;76;1364;-60
2023/10/24 10:24:31;;;;;;;;;;;19.90;58.70;;;;;;1513060;78;1503;-60
2023/10/24 10:26:39;;;;;;;;;;;20.00;58.80;;;;;;1508907;77;1556;-60
2023/10/24 10:28:42;;;;;;;;;;;20.00;58.70;;;;;;1516462;78;1500;-60
2023/10/24 10:30:49;;;;;;;;;;;20.00;58.70;;;;;;1511756;77;1596;-60
2023/10/24 10:33:09;;;;;;;;;;;19.90;58.80;;;;;;1509428;76;1520;-60
2023/10/24 10:35:12;;;;;;;;;;;19.90;58.90;;;;;;1511533;78;1330;-60
2023/10/24 10:37:14;;;;;;;;;;;20.00;58.90;;;;;;1513116;78;1487;-60
2023/10/24 10:39:16;;;;;;;;;;;19.90;58.80;;;;;;1515787;78;1948;-60
2023/10/24 10:41:22;;;;;;;;;;;20.00;58.90;;;;;;1510661;76;1329;-60
2023/10/24 10:43:26;;;;;;;;;;;20.00;58.80;;;;;;1513099;76;1505;-60
2023/10/24 10:45:29;;;;;;;;;;;19.90;58.90;;;;;;1510060;77;1521;-59
2023/10/24 10:47:31;;;;;;;;;;;20.00;59.00;;;;;;1505758;77;1495;-61
2023/10/24 10:49:41;;;;;;;;;;;19.90;58.90;;;;;;1517144;77;1547;-60
2023/10/24 10:51:43;;;;;;;;;;;19.90;58.90;;;;;;1515397;77;1328;-60
2023/10/24 10:53:46;;;;;;;;;;;20.00;59.00;;;;;;1513124;76;1233;-59
2023/10/24 10:55:50;;;;;;;;;;;20.00;58.90;;;;;;1515011;78;1858;-60
2023/10/24 10:58:05;;;;;;;;;;;20.00;58.90;;;;;;1515770;78;1947;-57
2023/10/24 11:00:08;;;;;;;;;;;19.90;59.00;;;;;;1509462;78;1525;-59
2023/10/24 11:02:18;;;;;;;;;;;20.00;58.90;;;;;;1517655;76;1322;-59
2023/10/24 11:04:19;;;;;;;;;;;19.90;59.00;;;;;;1510681;77;1298;-60
2023/10/24 11:06:21;;;;;;;;;;;19.90;59.00;;;;;;1516431;76;1379;-59
2023/10/24 11:08:23;;;;;;;;;;;20.00;58.90;;;;;;1489098;78;1485;-59
2023/10/24 11:10:25;;;;;;;;;;;20.00;59.00;;;;;;1507090;77;1297;-60
2023/10/24 11:12:28;;;;;;;;;;;20.00;58.90;;;;;;1512684;77;1512;-60
2023/10/24 11:14:30;;;;;;;;;;;20.00;59.00;;;;;;1514069;76;1441;-60
2023/10/24 11:16:31;;;;;;;;;;;20.00;58.90;;;;;;1514965;78;1319;-61
2023/10/24 11:18:34;;;;;;;;;;;19.90;58.90;;;;;;1516712;77;1933;-60
2023/10/24 11:20:36;;;;;;;;;;;20.00;59.00;;;;;;1514290;77;1341;-60
2023/10/24 11:22:38;;;;;;;;;;;20.00;58.90;;;;;;1509693;76;1136;-58
2023/10/24 11:24:40;;;;;;;;;;;19.90;59.00;;;;;;1508127;78;1318;-59
2023/10/24 11:26:41;;;;;;;;;;;20.00;58.90;;;;;;1515821;78;1152;-58
2023/10/24 11:28:44;;;;;;;;;;;20.00;59.00;;;;;;1508994;77;1365;-59
2023/10/24 11:30:47;;;;;;;;;;;20.00;59.00;;;;;;1516311;76;1297;-59
2023/10/24 11:32:49;;;;;;;;;;;20.00;59.00;;;;;;1518191;77;1443;-60
2023/10/24 11:34:51;;;;;;;;;;;19.90;58.80;;;;;;1513330;77;1454;-59
2023/10/24 11:36:53;;;;;;;;;;;19.90;57.70;;;;;;1510981;77;1371;-58
2023/10/24 11:38:58;;;;;;;;;;;19.90;58.50;;;;;;1511944;76;1929;-60
2023/10/24 11:40:58;;;;;;;;;;;19.90;58.70;;;;;;1516055;77;1534;-58
2023/10/24 11:43:06;;;;;;;;;;;19.90;58.90;;;;;;1509489;77;1570;-59
2023/10/24 11:45:08;;;;;;;;;;;20.00;58.80;;;;;;1511620;76;1236;-60
2023/10/24 11:47:16;;;;;;;;;;;19.90;58.80;;;;;;1493875;78;1517;-59
2023/10/24 11:49:18;;;;;;;;;;;19.90;58.90;;;;;;1508860;77;1463;-59
2023/10/24 11:51:19;;;;;;;;;;;19.90;58.90;;;;;;1513615;77;1309;-59
2023/10/24 11:53:22;;;;;;;;;;;20.00;58.90;;;;;;1516791;76;1515;-59
2023/10/24 11:55:24;;;;;;;;;;;20.00;59.00;;;;;;1513927;77;1485;-59
2023/10/24 11:57:26;;;;;;;;;;;20.00;58.90;;;;;;1510787;77;1306;-59
2023/10/24 11:59:37;;;;;;;;;;;19.90;58.90;;;;;;1512059;77;1946;-58
2023/10/24 12:01:38;;;;;;;;;;;19.90;58.90;;;;;;1513421;77;1532;-59
2023/10/24 12:03:42;;;;;;;;;;;20.00;58.90;;;;;;1493806;77;1359;-59
2023/10/24 12:05:52;;;;;;;;;;;20.00;58.90;;;;;;1505354;78;1106;-60
2023/10/24 12:07:56;;;;;;;;;;;20.00;59.00;;;;;;1512336;76;1645;-58